Time;durP1;ratioP1;P1;durP2;ratioP2;P2;SDS_P1;SDS_P2;PMS_P1;PMS_P2;Temp;Humidity;BMP_temperature;BMP_pressure;BME280_temperature;BME280_humidity;BME280_pressure;Samples;Min_cycle;Max_cycle;Signal;HPM_P1;HPM_P2
2024/01/25 00:02:29;;;;;;;1.70;1.60;;;;;;;;;;6187438;28;20291;-56
2024/01/25 00:05:33;;;;;;;1.50;1.50;;;;;;;;;;6187176;28;20299;-58
2024/01/25 00:08:38;;;;;;;1.40;1.40;;;;;;;;;;6186932;28;20291;-58
2024/01/25 00:11:42;;;;;;;1.30;1.30;;;;;;;;;;6187431;28;20298;-58
2024/01/25 00:14:46;;;;;;;1.20;1.20;;;;;;;;;;6186594;28;20295;-58
2024/01/25 00:17:51;;;;;;;1.20;1.20;;;;;;;;;;6186818;28;20290;-58
2024/01/25 00:20:55;;;;;;;1.10;1.10;;;;;;;;;;6185014;28;20299;-58
2024/01/25 00:23:59;;;;;;;1.20;1.20;;;;;;;;;;6186232;28;20473;-59
2024/01/25 00:27:03;;;;;;;1.20;1.20;;;;;;;;;;6186940;28;20591;-57
2024/01/25 00:30:08;;;;;;;1.23;1.23;;;;;;;;;;6186359;28;20309;-57
2024/01/25 00:33:14;;;;;;;1.30;1.30;;;;;;;;;;6186051;28;20300;-57
2024/01/25 00:36:19;;;;;;;1.30;1.30;;;;;;;;;;6186125;28;20305;-57
2024/01/25 00:39:23;;;;;;;1.30;1.30;;;;;;;;;;6185251;28;20300;-58
2024/01/25 00:42:27;;;;;;;1.37;1.37;;;;;;;;;;6186589;28;20298;-57
2024/01/25 00:45:32;;;;;;;1.20;1.20;;;;;;;;;;6185891;28;20295;-57
2024/01/25 00:48:39;;;;;;;1.27;1.27;;;;;;;;;;6186004;28;20419;-57
2024/01/25 00:51:48;;;;;;;1.37;1.37;;;;;;;;;;6186045;28;20287;-57
2024/01/25 00:54:54;;;;;;;1.40;1.30;;;;;;;;;;6185344;28;20304;-56
2024/01/25 00:57:59;;;;;;;1.10;1.10;;;;;;;;;;6185299;28;20287;-55
2024/01/25 01:01:04;;;;;;;1.10;1.10;;;;;;;;;;6185516;28;20306;-57
2024/01/25 01:04:10;;;;;;;1.50;1.40;;;;;;;;;;6185312;28;20296;-57
2024/01/25 01:07:16;;;;;;;1.30;1.30;;;;;;;;;;6185897;28;20331;-57
2024/01/25 01:10:20;;;;;;;1.30;1.30;;;;;;;;;;6185106;28;20295;-56
2024/01/25 01:13:24;;;;;;;1.37;1.37;;;;;;;;;;6184821;28;20304;-58
2024/01/25 01:16:30;;;;;;;1.30;1.30;;;;;;;;;;6185727;28;20295;-58
2024/01/25 01:19:36;;;;;;;1.30;1.30;;;;;;;;;;6185184;28;20301;-58
2024/01/25 01:22:40;;;;;;;1.20;1.20;;;;;;;;;;6185341;28;20303;-57
2024/01/25 01:25:44;;;;;;;1.50;1.50;;;;;;;;;;6185014;28;20292;-57
2024/01/25 01:28:48;;;;;;;1.30;1.30;;;;;;;;;;6184105;28;20300;-57
2024/01/25 01:31:53;;;;;;;1.50;1.50;;;;;;;;;;6185327;28;20301;-56
2024/01/25 01:34:59;;;;;;;1.40;1.40;;;;;;;;;;6184956;28;20481;-56
2024/01/25 01:38:03;;;;;;;1.30;1.30;;;;;;;;;;6184988;28;20311;-57
2024/01/25 01:41:07;;;;;;;1.50;1.50;;;;;;;;;;6185725;28;20300;-55
2024/01/25 01:44:11;;;;;;;1.60;1.60;;;;;;;;;;6184813;28;20307;-56
2024/01/25 01:47:15;;;;;;;1.60;1.60;;;;;;;;;;6185304;28;20299;-57
2024/01/25 01:50:20;;;;;;;1.50;1.50;;;;;;;;;;6184691;28;20425;-58
2024/01/25 01:53:25;;;;;;;1.73;1.73;;;;;;;;;;6184496;28;20297;-57
2024/01/25 01:56:29;;;;;;;1.80;1.70;;;;;;;;;;6187503;28;20255;-58
2024/01/25 01:59:34;;;;;;;1.80;1.80;;;;;;;;;;6187860;28;20485;-59
2024/01/25 02:02:38;;;;;;;1.90;1.80;;;;;;;;;;6188523;28;20304;-58
2024/01/25 02:05:43;;;;;;;1.70;1.70;;;;;;;;;;6187887;28;20294;-58
2024/01/25 02:08:48;;;;;;;1.93;1.83;;;;;;;;;;6188063;28;20304;-57
2024/01/25 02:12:01;;;;;;;1.97;1.87;;;;;;;;;;6188244;28;20447;-57
2024/01/25 02:15:05;;;;;;;1.73;1.73;;;;;;;;;;6186425;28;20421;-57
2024/01/25 02:18:10;;;;;;;1.70;1.70;;;;;;;;;;6181914;28;20303;-58
2024/01/25 02:21:16;;;;;;;1.80;1.80;;;;;;;;;;6184297;28;20300;-57
2024/01/25 02:24:21;;;;;;;2.00;1.90;;;;;;;;;;6183730;28;20315;-56
2024/01/25 02:27:25;;;;;;;1.90;1.90;;;;;;;;;;6182775;28;20295;-57
2024/01/25 02:30:29;;;;;;;1.80;1.80;;;;;;;;;;6184215;28;20296;-58
2024/01/25 02:33:33;;;;;;;2.20;2.00;;;;;;;;;;6184503;28;20294;-57
2024/01/25 02:36:39;;;;;;;1.93;1.90;;;;;;;;;;6185189;28;20236;-56
2024/01/25 02:39:45;;;;;;;1.83;1.83;;;;;;;;;;6184991;28;20577;-57
2024/01/25 02:42:49;;;;;;;1.87;1.87;;;;;;;;;;6189285;28;20297;-58
2024/01/25 02:45:54;;;;;;;1.70;1.70;;;;;;;;;;6188934;28;20294;-57
2024/01/25 02:48:58;;;;;;;2.00;1.90;;;;;;;;;;6188763;28;20589;-58
2024/01/25 02:52:02;;;;;;;1.80;1.73;;;;;;;;;;6188966;28;20299;-58
2024/01/25 02:55:09;;;;;;;2.07;1.97;;;;;;;;;;6188997;28;20299;-57
2024/01/25 02:58:13;;;;;;;1.60;1.50;;;;;;;;;;6188189;28;20325;-57
2024/01/25 03:01:17;;;;;;;1.50;1.40;;;;;;;;;;6187810;28;20313;-57
2024/01/25 03:04:21;;;;;;;1.50;1.50;;;;;;;;;;6188179;28;20426;-58
2024/01/25 03:07:25;;;;;;;1.60;1.50;;;;;;;;;;6188766;28;20371;-57
2024/01/25 03:10:31;;;;;;;2.10;1.60;;;;;;;;;;6188409;28;20322;-57
2024/01/25 03:13:35;;;;;;;1.50;1.40;;;;;;;;;;6188137;28;20291;-57
2024/01/25 03:16:39;;;;;;;1.50;1.43;;;;;;;;;;6188362;28;20294;-58
2024/01/25 03:19:43;;;;;;;1.53;1.53;;;;;;;;;;6188125;28;20303;-58
2024/01/25 03:22:47;;;;;;;1.10;1.10;;;;;;;;;;6188299;28;20314;-57
2024/01/25 03:25:52;;;;;;;1.23;1.20;;;;;;;;;;6187657;28;20301;-58
2024/01/25 03:28:56;;;;;;;1.30;1.30;;;;;;;;;;6187522;28;20604;-58
2024/01/25 03:32:00;;;;;;;1.20;1.20;;;;;;;;;;6188374;28;20293;-57
2024/01/25 03:35:05;;;;;;;3.90;1.37;;;;;;;;;;6187669;28;20297;-57
2024/01/25 03:38:09;;;;;;;1.00;1.00;;;;;;;;;;6187580;28;20290;-56
2024/01/25 03:41:14;;;;;;;0.93;0.93;;;;;;;;;;6188164;28;20301;-58
2024/01/25 03:44:18;;;;;;;0.90;0.90;;;;;;;;;;6187514;28;20291;-57
2024/01/25 03:47:22;;;;;;;0.90;0.90;;;;;;;;;;6187580;28;20571;-55
2024/01/25 03:50:27;;;;;;;1.20;1.20;;;;;;;;;;6186577;28;20591;-55
2024/01/25 03:53:31;;;;;;;1.00;1.00;;;;;;;;;;6187308;28;20300;-58
2024/01/25 03:56:37;;;;;;;0.90;0.90;;;;;;;;;;6188032;28;20301;-58
2024/01/25 03:59:41;;;;;;;1.00;1.00;;;;;;;;;;6187414;28;20293;-57
2024/01/25 04:02:45;;;;;;;0.80;0.80;;;;;;;;;;6185425;28;20294;-57
2024/01/25 04:05:49;;;;;;;1.00;1.00;;;;;;;;;;6187303;28;20313;-58
2024/01/25 04:08:53;;;;;;;1.07;1.07;;;;;;;;;;6187343;28;20302;-57
2024/01/25 04:11:58;;;;;;;0.93;0.93;;;;;;;;;;6187092;28;20297;-57
2024/01/25 04:15:03;;;;;;;1.13;1.13;;;;;;;;;;6186630;28;20325;-59
2024/01/25 04:18:07;;;;;;;1.37;1.30;;;;;;;;;;6186748;28;20306;-58
2024/01/25 04:21:11;;;;;;;1.10;1.10;;;;;;;;;;6162925;29;20297;-57
2024/01/25 04:24:15;;;;;;;1.10;1.10;;;;;;;;;;6161877;28;20301;-58
2024/01/25 04:27:20;;;;;;;1.33;1.30;;;;;;;;;;6184703;28;20297;-58
2024/01/25 04:30:24;;;;;;;1.40;1.40;;;;;;;;;;6185317;28;20302;-57
2024/01/25 04:33:28;;;;;;;1.70;1.60;;;;;;;;;;6185638;28;20302;-58
2024/01/25 04:36:32;;;;;;;1.27;1.27;;;;;;;;;;6186660;28;20297;-59
2024/01/25 04:39:36;;;;;;;2.00;1.60;;;;;;;;;;6186117;28;20297;-55
2024/01/25 04:42:42;;;;;;;1.70;1.70;;;;;;;;;;6185778;28;20306;-58
2024/01/25 04:45:46;;;;;;;1.60;1.60;;;;;;;;;;6186369;28;20285;-58
2024/01/25 04:48:50;;;;;;;1.60;1.60;;;;;;;;;;6185893;28;20305;-58
2024/01/25 04:51:54;;;;;;;1.73;1.63;;;;;;;;;;6186247;28;20289;-58
2024/01/25 04:54:58;;;;;;;1.60;1.60;;;;;;;;;;6181766;28;20294;-56
2024/01/25 04:58:04;;;;;;;1.60;1.50;;;;;;;;;;6185843;28;20305;-59
2024/01/25 05:01:08;;;;;;;1.40;1.40;;;;;;;;;;6186195;28;20298;-58
2024/01/25 05:04:13;;;;;;;1.77;1.67;;;;;;;;;;6185315;28;20308;-58
2024/01/25 05:07:17;;;;;;;1.63;1.47;;;;;;;;;;6185921;28;20290;-56
2024/01/25 05:10:22;;;;;;;1.97;1.80;;;;;;;;;;6185175;28;20488;-57
2024/01/25 05:13:28;;;;;;;1.60;1.60;;;;;;;;;;6185347;28;20302;-56
2024/01/25 05:16:32;;;;;;;1.40;1.40;;;;;;;;;;6185708;28;20305;-59
2024/01/25 05:19:36;;;;;;;1.67;1.67;;;;;;;;;;6185154;28;20297;-57
2024/01/25 05:22:41;;;;;;;2.20;1.50;;;;;;;;;;6184476;28;20483;-58
2024/01/25 05:25:45;;;;;;;1.40;1.40;;;;;;;;;;6159826;28;20299;-57
2024/01/25 05:28:51;;;;;;;1.70;1.50;;;;;;;;;;6159530;28;20556;-56
2024/01/25 05:31:55;;;;;;;1.87;1.77;;;;;;;;;;6161298;29;20298;-59
2024/01/25 05:35:00;;;;;;;1.87;1.87;;;;;;;;;;6160729;29;20301;-57
2024/01/25 05:38:04;;;;;;;1.83;1.70;;;;;;;;;;6160875;29;20361;-58
2024/01/25 05:41:08;;;;;;;1.53;1.53;;;;;;;;;;6161065;29;20291;-57
2024/01/25 05:44:14;;;;;;;1.83;1.73;;;;;;;;;;6160776;29;20295;-55
2024/01/25 05:47:18;;;;;;;1.67;1.67;;;;;;;;;;6160776;29;20290;-56
2024/01/25 05:50:22;;;;;;;1.80;1.80;;;;;;;;;;6160447;29;20306;-58
2024/01/25 05:53:26;;;;;;;1.80;1.70;;;;;;;;;;6160437;28;20319;-56
2024/01/25 05:56:30;;;;;;;2.83;1.90;;;;;;;;;;6161314;29;20582;-57
2024/01/25 05:59:36;;;;;;;2.97;2.77;;;;;;;;;;6160797;28;20343;-58
2024/01/25 06:02:40;;;;;;;1.70;1.70;;;;;;;;;;6160453;29;20477;-61
2024/01/25 06:05:44;;;;;;;1.90;1.90;;;;;;;;;;6161309;29;20259;-57
2024/01/25 06:08:48;;;;;;;2.53;2.10;;;;;;;;;;6160543;28;20290;-57
2024/01/25 06:12:05;;;;;;;2.83;2.00;;;;;;;;;;6182826;28;20309;-59
2024/01/25 06:15:11;;;;;;;1.87;1.87;;;;;;;;;;6189629;28;20467;-59
2024/01/25 06:18:15;;;;;;;1.83;1.83;;;;;;;;;;6192357;28;20290;-59
2024/01/25 06:21:19;;;;;;;1.60;1.60;;;;;;;;;;6193004;28;20293;-58
2024/01/25 06:24:23;;;;;;;1.93;1.73;;;;;;;;;;6192001;28;20594;-57
2024/01/25 06:27:27;;;;;;;1.80;1.80;;;;;;;;;;6192434;28;20292;-58
2024/01/25 06:30:32;;;;;;;1.70;1.70;;;;;;;;;;6191884;28;20301;-58
2024/01/25 06:33:36;;;;;;;1.87;1.87;;;;;;;;;;6192202;28;20298;-56
2024/01/25 06:36:41;;;;;;;1.67;1.63;;;;;;;;;;6193171;28;20414;-57
2024/01/25 06:39:45;;;;;;;1.63;1.60;;;;;;;;;;6191881;28;20285;-58
2024/01/25 06:42:49;;;;;;;1.53;1.53;;;;;;;;;;6192135;28;20290;-57
2024/01/25 06:45:54;;;;;;;1.60;1.60;;;;;;;;;;6192893;28;20301;-56
2024/01/25 06:48:58;;;;;;;1.57;1.57;;;;;;;;;;6191795;28;20293;-56
2024/01/25 06:52:03;;;;;;;1.80;1.80;;;;;;;;;;6192281;28;20297;-57
2024/01/25 06:55:07;;;;;;;1.80;1.67;;;;;;;;;;6191915;28;20297;-58
2024/01/25 06:58:11;;;;;;;1.50;1.50;;;;;;;;;;6191825;28;20297;-57
2024/01/25 07:01:23;;;;;;;1.87;1.77;;;;;;;;;;6192126;28;20362;-58
2024/01/25 07:04:27;;;;;;;1.83;1.73;;;;;;;;;;6173662;28;20460;-55
2024/01/25 07:07:33;;;;;;;1.60;1.60;;;;;;;;;;6192291;28;20302;-56
2024/01/25 07:10:37;;;;;;;1.60;1.60;;;;;;;;;;6191587;28;20297;-57
2024/01/25 07:13:42;;;;;;;2.00;1.90;;;;;;;;;;6191437;28;20477;-58
2024/01/25 07:16:47;;;;;;;2.23;1.70;;;;;;;;;;6192207;28;20301;-57
2024/01/25 07:19:51;;;;;;;1.80;1.70;;;;;;;;;;6191716;28;20611;-58
2024/01/25 07:22:55;;;;;;;1.90;1.90;;;;;;;;;;6191508;28;20348;-57
2024/01/25 07:25:59;;;;;;;1.90;1.80;;;;;;;;;;6189545;28;20294;-56
2024/01/25 07:29:03;;;;;;;1.20;1.20;;;;;;;;;;6187913;28;20305;-57
2024/01/25 07:32:09;;;;;;;1.57;1.47;;;;;;;;;;6188186;28;20297;-56
2024/01/25 07:35:13;;;;;;;1.67;1.57;;;;;;;;;;6187936;28;20484;-57
2024/01/25 07:38:19;;;;;;;1.40;1.40;;;;;;;;;;6187688;28;20305;-59
2024/01/25 07:41:22;;;;;;;1.60;1.60;;;;;;;;;;6187920;28;20515;-57
2024/01/25 07:44:26;;;;;;;1.20;1.20;;;;;;;;;;6187190;28;20432;-57
2024/01/25 07:47:32;;;;;;;1.50;1.50;;;;;;;;;;6187978;28;20288;-56
2024/01/25 07:50:37;;;;;;;1.47;1.47;;;;;;;;;;6187226;28;20313;-57
2024/01/25 07:53:41;;;;;;;1.10;1.10;;;;;;;;;;6187247;28;20292;-57
2024/01/25 07:56:46;;;;;;;1.10;1.10;;;;;;;;;;6187493;28;20298;-58
2024/01/25 07:59:50;;;;;;;0.90;0.90;;;;;;;;;;6187433;28;20310;-57
2024/01/25 08:02:56;;;;;;;1.10;1.10;;;;;;;;;;6186718;28;20485;-59
2024/01/25 08:06:00;;;;;;;0.97;0.97;;;;;;;;;;6187307;28;20309;-56
2024/01/25 08:09:04;;;;;;;1.10;1.10;;;;;;;;;;6186722;28;20614;-56
2024/01/25 08:12:08;;;;;;;1.10;1.07;;;;;;;;;;6187293;28;20302;-58
2024/01/25 08:15:13;;;;;;;1.30;1.20;;;;;;;;;;6187339;28;20589;-56
2024/01/25 08:18:19;;;;;;;1.57;1.20;;;;;;;;;;6186553;28;20297;-56
2024/01/25 08:21:23;;;;;;;1.10;1.10;;;;;;;;;;6186716;28;20306;-57
2024/01/25 08:24:27;;;;;;;1.00;1.00;;;;;;;;;;6186493;28;20317;-56
2024/01/25 08:27:31;;;;;;;1.00;1.00;;;;;;;;;;6186736;28;20297;-57
2024/01/25 08:30:35;;;;;;;1.00;1.00;;;;;;;;;;6186463;28;20586;-58
2024/01/25 08:33:44;;;;;;;1.07;1.07;;;;;;;;;;6186161;28;20429;-57
2024/01/25 08:36:50;;;;;;;1.37;1.20;;;;;;;;;;6186263;28;20289;-58
2024/01/25 08:39:54;;;;;;;1.10;1.10;;;;;;;;;;6186279;28;20285;-59
2024/01/25 08:42:58;;;;;;;1.20;1.20;;;;;;;;;;6186008;28;20272;-58
2024/01/25 08:46:03;;;;;;;1.23;1.23;;;;;;;;;;6186515;28;20285;-56
2024/01/25 08:49:09;;;;;;;1.30;1.30;;;;;;;;;;6186139;28;20581;-58
2024/01/25 08:52:15;;;;;;;1.30;1.30;;;;;;;;;;6186518;28;20301;-56
2024/01/25 08:55:19;;;;;;;1.37;1.37;;;;;;;;;;6185867;28;20542;-58
2024/01/25 08:58:23;;;;;;;1.40;1.40;;;;;;;;;;6185843;28;20293;-59
2024/01/25 09:01:28;;;;;;;1.70;1.60;;;;;;;;;;6186746;28;20493;-60
2024/01/25 09:04:34;;;;;;;1.20;1.20;;;;;;;;;;6186309;28;20332;-55
2024/01/25 09:07:38;;;;;;;1.60;1.60;;;;;;;;;;6180244;28;20298;-57
2024/01/25 09:10:44;;;;;;;1.70;1.70;;;;;;;;;;6185275;28;20297;-57
2024/01/25 09:13:48;;;;;;;1.93;1.80;;;;;;;;;;6185441;28;20480;-58
2024/01/25 09:16:53;;;;;;;2.03;2.03;;;;;;;;;;6185751;28;20282;-58
2024/01/25 09:19:59;;;;;;;2.03;1.83;;;;;;;;;;6185551;28;20566;-58
2024/01/25 09:23:05;;;;;;;2.17;2.07;;;;;;;;;;6184856;28;20313;-57
2024/01/25 09:26:08;;;;;;;2.10;2.00;;;;;;;;;;6185819;28;20333;-58
2024/01/25 09:29:12;;;;;;;2.13;2.10;;;;;;;;;;6184971;28;20305;-57
2024/01/25 09:32:20;;;;;;;2.13;2.03;;;;;;;;;;6185350;28;20313;-58
2024/01/25 09:35:26;;;;;;;2.23;2.10;;;;;;;;;;6184886;28;20293;-58
2024/01/25 09:38:30;;;;;;;2.27;2.23;;;;;;;;;;6185109;28;20302;-57
2024/01/25 09:41:35;;;;;;;2.57;2.00;;;;;;;;;;6168248;28;20289;-57
2024/01/25 09:44:39;;;;;;;2.07;2.07;;;;;;;;;;6184955;28;20297;-58
2024/01/25 09:47:43;;;;;;;2.17;1.97;;;;;;;;;;6184785;28;20294;-57
2024/01/25 09:50:49;;;;;;;2.00;2.00;;;;;;;;;;6184527;28;20289;-56
2024/01/25 09:53:55;;;;;;;2.43;2.23;;;;;;;;;;6184541;28;20362;-58
2024/01/25 09:56:59;;;;;;;2.00;1.90;;;;;;;;;;6185264;28;20607;-57
2024/01/25 10:00:05;;;;;;;2.50;2.40;;;;;;;;;;6184653;28;20297;-57
2024/01/25 10:03:10;;;;;;;2.50;2.30;;;;;;;;;;6183508;28;20297;-59
2024/01/25 10:06:17;;;;;;;2.80;2.70;;;;;;;;;;6185013;28;20286;-56
2024/01/25 10:09:22;;;;;;;2.47;2.37;;;;;;;;;;6184158;28;20294;-59
2024/01/25 10:12:26;;;;;;;3.40;3.10;;;;;;;;;;6161196;28;20301;-58
2024/01/25 10:15:30;;;;;;;2.90;2.70;;;;;;;;;;6160497;28;20310;-57
2024/01/25 10:18:34;;;;;;;2.70;2.60;;;;;;;;;;6160319;28;20614;-57
2024/01/25 10:21:42;;;;;;;3.10;2.90;;;;;;;;;;6161261;29;20568;-58
2024/01/25 10:24:50;;;;;;;3.67;3.40;;;;;;;;;;6159907;28;20451;-56
2024/01/25 10:27:54;;;;;;;3.10;3.00;;;;;;;;;;6184274;28;20396;-58
2024/01/25 10:30:58;;;;;;;2.70;2.60;;;;;;;;;;6184753;28;20297;-57
2024/01/25 10:34:02;;;;;;;2.83;2.73;;;;;;;;;;6184284;28;20305;-57
2024/01/25 10:37:09;;;;;;;3.30;3.10;;;;;;;;;;6184600;28;20300;-56
2024/01/25 10:40:16;;;;;;;3.70;3.20;;;;;;;;;;6168411;28;20299;-57
2024/01/25 10:43:22;;;;;;;3.60;3.40;;;;;;;;;;6183018;28;20293;-58
2024/01/25 10:46:27;;;;;;;3.37;2.90;;;;;;;;;;6185045;28;20585;-56
2024/01/25 10:49:32;;;;;;;3.20;2.97;;;;;;;;;;6184078;28;20298;-57
2024/01/25 10:52:39;;;;;;;3.07;2.87;;;;;;;;;;6184499;28;20293;-57
2024/01/25 10:55:43;;;;;;;3.13;3.07;;;;;;;;;;6184181;28;20616;-56
2024/01/25 10:58:47;;;;;;;3.50;3.30;;;;;;;;;;6183727;28;20313;-59
2024/01/25 11:01:51;;;;;;;3.30;3.20;;;;;;;;;;6169891;28;20289;-58
2024/01/25 11:04:56;;;;;;;3.30;3.10;;;;;;;;;;6188508;28;20285;-57
2024/01/25 11:08:02;;;;;;;3.57;3.47;;;;;;;;;;6188249;28;20298;-54
2024/01/25 11:11:08;;;;;;;3.87;3.43;;;;;;;;;;6188656;28;20297;-58
2024/01/25 11:14:14;;;;;;;4.03;3.93;;;;;;;;;;6188219;28;20315;-56
2024/01/25 11:17:20;;;;;;;4.50;4.20;;;;;;;;;;6188112;28;20736;-56
2024/01/25 11:20:26;;;;;;;3.97;3.60;;;;;;;;;;6187544;28;20305;-59
2024/01/25 11:23:33;;;;;;;4.20;3.90;;;;;;;;;;6186131;28;20491;-57
2024/01/25 11:26:39;;;;;;;4.07;3.70;;;;;;;;;;6188265;28;20423;-58
2024/01/25 11:29:43;;;;;;;4.43;4.13;;;;;;;;;;6188139;28;20297;-59
2024/01/25 11:32:48;;;;;;;5.15;4.82;;;;;;;;;;6187146;28;20526;-58
2024/01/25 11:35:55;;;;;;;3.23;3.10;;;;;;;;;;6188176;28;20290;-57
2024/01/25 11:39:01;;;;;;;3.57;3.27;;;;;;;;;;6187788;28;20316;-56
2024/01/25 11:42:05;;;;;;;3.80;3.60;;;;;;;;;;6187814;28;20590;-58
2024/01/25 11:45:11;;;;;;;3.43;3.20;;;;;;;;;;6179108;28;20297;-57
2024/01/25 11:48:15;;;;;;;3.30;3.20;;;;;;;;;;6187977;28;20303;-55
2024/01/25 11:51:19;;;;;;;3.53;3.43;;;;;;;;;;6187651;28;20301;-57
2024/01/25 11:54:25;;;;;;;2.73;2.53;;;;;;;;;;6186462;28;20312;-57
2024/01/25 11:57:30;;;;;;;2.37;2.27;;;;;;;;;;6187450;28;20584;-57
2024/01/25 12:00:34;;;;;;;2.47;2.47;;;;;;;;;;6186676;28;20297;-56
2024/01/25 12:03:38;;;;;;;2.53;2.50;;;;;;;;;;6186369;28;20456;-57
2024/01/25 12:06:42;;;;;;;2.67;2.57;;;;;;;;;;6187319;28;20290;-60
2024/01/25 12:09:58;;;;;;;2.47;2.37;;;;;;;;;;6186860;28;20295;-57
2024/01/25 12:13:02;;;;;;;2.43;2.30;;;;;;;;;;6185499;28;20256;-56
2024/01/25 12:16:07;;;;;;;2.40;2.30;;;;;;;;;;6186888;28;20293;-56
2024/01/25 12:19:11;;;;;;;2.30;2.30;;;;;;;;;;6186316;28;20302;-58
2024/01/25 12:22:22;;;;;;;3.57;2.63;;;;;;;;;;6186636;28;20395;-57
2024/01/25 12:25:27;;;;;;;2.50;2.30;;;;;;;;;;6189079;28;20424;-56
2024/01/25 12:28:32;;;;;;;3.40;2.07;;;;;;;;;;6186486;28;20384;-57
2024/01/25 12:31:36;;;;;;;2.33;2.20;;;;;;;;;;6192232;28;20613;-57
2024/01/25 12:34:41;;;;;;;2.27;2.00;;;;;;;;;;6191032;28;20331;-57
2024/01/25 12:37:45;;;;;;;1.60;1.60;;;;;;;;;;6190536;28;20294;-56
2024/01/25 12:40:51;;;;;;;1.70;1.70;;;;;;;;;;6189343;28;20293;-57
2024/01/25 12:43:55;;;;;;;2.60;1.70;;;;;;;;;;6188929;28;20290;-55
2024/01/25 12:47:01;;;;;;;1.60;1.60;;;;;;;;;;6186618;28;20288;-57
2024/01/25 12:50:06;;;;;;;1.47;1.40;;;;;;;;;;6185373;28;20297;-56
2024/01/25 12:53:11;;;;;;;1.37;1.37;;;;;;;;;;6185622;28;20314;-57
2024/01/25 12:56:16;;;;;;;1.60;1.50;;;;;;;;;;6186112;28;20298;-57
2024/01/25 12:59:21;;;;;;;2.07;1.87;;;;;;;;;;6185546;28;20298;-57
2024/01/25 13:02:24;;;;;;;1.60;1.60;;;;;;;;;;6186126;28;20350;-57
2024/01/25 13:05:29;;;;;;;1.60;1.60;;;;;;;;;;6167975;28;20305;-56
2024/01/25 13:08:33;;;;;;;1.60;1.50;;;;;;;;;;6185226;28;20297;-57
2024/01/25 13:11:38;;;;;;;1.40;1.40;;;;;;;;;;6185650;28;20296;-57
2024/01/25 13:14:42;;;;;;;1.47;1.47;;;;;;;;;;6185086;28;20341;-55
2024/01/25 13:17:46;;;;;;;1.73;1.70;;;;;;;;;;6185035;28;20292;-58
2024/01/25 13:20:50;;;;;;;3.57;1.67;;;;;;;;;;6185281;28;20316;-57
2024/01/25 13:23:54;;;;;;;1.67;1.60;;;;;;;;;;6183781;28;20300;-56
2024/01/25 13:26:59;;;;;;;1.23;1.23;;;;;;;;;;6185323;28;20476;-57
2024/01/25 13:30:05;;;;;;;1.20;1.20;;;;;;;;;;6183898;28;20384;-55
2024/01/25 13:33:09;;;;;;;1.53;1.40;;;;;;;;;;6184593;28;20297;-56
2024/01/25 13:36:14;;;;;;;1.10;1.10;;;;;;;;;;6184924;28;20300;-57
2024/01/25 13:39:18;;;;;;;1.23;1.23;;;;;;;;;;6184213;28;20290;-56
2024/01/25 13:42:23;;;;;;;1.17;1.17;;;;;;;;;;6184419;28;20299;-58
2024/01/25 13:45:27;;;;;;;1.23;1.23;;;;;;;;;;6184642;28;20325;-56
2024/01/25 13:48:31;;;;;;;1.37;1.27;;;;;;;;;;6184365;28;20298;-57
2024/01/25 13:51:35;;;;;;;2.47;1.20;;;;;;;;;;6184773;28;20412;-56
2024/01/25 13:54:39;;;;;;;1.23;1.00;;;;;;;;;;6184384;28;20462;-58
2024/01/25 13:57:45;;;;;;;1.20;1.20;;;;;;;;;;6184901;28;20293;-57
2024/01/25 14:00:49;;;;;;;1.60;1.10;;;;;;;;;;6184706;28;20296;-57
2024/01/25 14:03:53;;;;;;;2.77;1.30;;;;;;;;;;6184270;28;20319;-57
2024/01/25 14:06:57;;;;;;;1.20;1.20;;;;;;;;;;6184674;28;20534;-56
2024/01/25 14:10:01;;;;;;;1.20;1.20;;;;;;;;;;6184047;28;20292;-58
2024/01/25 14:13:07;;;;;;;1.03;1.03;;;;;;;;;;6183511;28;20504;-58
2024/01/25 14:16:16;;;;;;;1.00;1.00;;;;;;;;;;6184574;28;20303;-57
2024/01/25 14:19:21;;;;;;;1.50;1.10;;;;;;;;;;6183976;28;20301;-57
2024/01/25 14:22:26;;;;;;;2.40;1.30;;;;;;;;;;6184168;28;20492;-58
2024/01/25 14:25:35;;;;;;;1.20;1.20;;;;;;;;;;6183647;28;20368;-57
2024/01/25 14:28:41;;;;;;;1.17;1.17;;;;;;;;;;6183678;28;20308;-58
2024/01/25 14:31:45;;;;;;;1.03;1.03;;;;;;;;;;6184531;28;20292;-56
2024/01/25 14:34:49;;;;;;;1.10;1.10;;;;;;;;;;6183700;28;20308;-59
2024/01/25 14:37:53;;;;;;;1.20;1.20;;;;;;;;;;6188842;28;20293;-58
2024/01/25 14:40:57;;;;;;;1.27;1.17;;;;;;;;;;6189182;28;20297;-56
2024/01/25 14:44:07;;;;;;;1.50;1.50;;;;;;;;;;6188837;28;20297;-57
2024/01/25 14:47:11;;;;;;;1.50;1.40;;;;;;;;;;6189128;28;20301;-57
2024/01/25 14:50:16;;;;;;;1.10;1.10;;;;;;;;;;6188674;28;20293;-57
2024/01/25 14:53:19;;;;;;;1.50;1.40;;;;;;;;;;6188550;28;20295;-56
2024/01/25 14:56:23;;;;;;;1.50;1.40;;;;;;;;;;6189036;28;20309;-58
2024/01/25 14:59:29;;;;;;;1.40;1.40;;;;;;;;;;6188432;28;20304;-57
2024/01/25 15:02:33;;;;;;;1.30;1.30;;;;;;;;;;6188798;28;20313;-56
2024/01/25 15:05:37;;;;;;;1.30;1.30;;;;;;;;;;6161316;28;20386;-57
2024/01/25 15:08:41;;;;;;;1.23;1.23;;;;;;;;;;6188380;28;20305;-57
2024/01/25 15:11:46;;;;;;;1.30;1.30;;;;;;;;;;6188580;28;20297;-55
2024/01/25 15:14:51;;;;;;;1.50;1.50;;;;;;;;;;6182750;28;20314;-56
2024/01/25 15:17:55;;;;;;;1.20;1.20;;;;;;;;;;6187739;28;20292;-57
2024/01/25 15:21:00;;;;;;;1.00;1.00;;;;;;;;;;6188447;28;20294;-56
2024/01/25 15:24:04;;;;;;;0.90;0.90;;;;;;;;;;6187456;28;20304;-57
2024/01/25 15:27:09;;;;;;;2.10;1.10;;;;;;;;;;6188339;28;20298;-56
2024/01/25 15:30:15;;;;;;;1.53;1.30;;;;;;;;;;6187721;28;20589;-54
2024/01/25 15:33:19;;;;;;;1.20;1.20;;;;;;;;;;6187704;28;20464;-57
2024/01/25 15:36:23;;;;;;;1.10;1.10;;;;;;;;;;6187470;28;20295;-58
2024/01/25 15:39:27;;;;;;;1.27;1.20;;;;;;;;;;6187546;28;20314;-58
2024/01/25 15:42:31;;;;;;;2.83;1.17;;;;;;;;;;6169913;28;20308;-56
2024/01/25 15:45:37;;;;;;;2.00;1.23;;;;;;;;;;6187354;28;20300;-56
2024/01/25 15:48:41;;;;;;;1.07;1.07;;;;;;;;;;6186055;28;20471;-58
2024/01/25 15:51:45;;;;;;;1.17;1.17;;;;;;;;;;6187761;28;20294;-57
2024/01/25 15:54:51;;;;;;;0.90;0.90;;;;;;;;;;6187398;28;20557;-57
2024/01/25 15:57:55;;;;;;;1.10;1.10;;;;;;;;;;6187103;28;20300;-56
2024/01/25 16:01:00;;;;;;;1.30;1.20;;;;;;;;;;6187793;28;20289;-56
2024/01/25 16:04:04;;;;;;;1.17;1.10;;;;;;;;;;6187028;28;20292;-58
2024/01/25 16:07:10;;;;;;;1.00;1.00;;;;;;;;;;6187297;28;20292;-56
2024/01/25 16:10:14;;;;;;;1.13;1.13;;;;;;;;;;6186825;28;20465;-57
2024/01/25 16:13:18;;;;;;;1.23;1.23;;;;;;;;;;6186866;28;20600;-58
2024/01/25 16:16:23;;;;;;;1.17;1.17;;;;;;;;;;6186860;28;20294;-57
2024/01/25 16:19:27;;;;;;;1.30;1.20;;;;;;;;;;6186324;28;20455;-57
2024/01/25 16:22:32;;;;;;;1.43;1.43;;;;;;;;;;6186975;28;20312;-56
2024/01/25 16:25:37;;;;;;;1.30;1.30;;;;;;;;;;6186631;28;20293;-55
2024/01/25 16:28:40;;;;;;;1.20;1.20;;;;;;;;;;6176657;28;20302;-56
2024/01/25 16:31:46;;;;;;;1.20;1.20;;;;;;;;;;6162692;29;20298;-57
2024/01/25 16:34:50;;;;;;;1.20;1.20;;;;;;;;;;6151996;28;20297;-57
2024/01/25 16:37:54;;;;;;;1.63;1.27;;;;;;;;;;6161427;28;20298;-57
2024/01/25 16:40:58;;;;;;;1.60;1.60;;;;;;;;;;6162519;29;20294;-56
2024/01/25 16:44:02;;;;;;;1.60;1.30;;;;;;;;;;6161729;28;20574;-55
2024/01/25 16:47:07;;;;;;;1.30;1.30;;;;;;;;;;6162595;29;20305;-57
2024/01/25 16:50:12;;;;;;;1.47;1.37;;;;;;;;;;6162139;29;20319;-56
2024/01/25 16:53:17;;;;;;;1.10;1.10;;;;;;;;;;6161753;29;20389;-59
2024/01/25 16:56:20;;;;;;;2.13;1.40;;;;;;;;;;6162122;29;20609;-56
2024/01/25 16:59:25;;;;;;;1.70;1.40;;;;;;;;;;6161152;28;20368;-57
2024/01/25 17:02:31;;;;;;;1.30;1.30;;;;;;;;;;6161976;29;20294;-56
2024/01/25 17:05:35;;;;;;;1.57;1.57;;;;;;;;;;6161269;29;20286;-57
2024/01/25 17:08:39;;;;;;;1.00;1.00;;;;;;;;;;6161955;29;20310;-58
2024/01/25 17:11:43;;;;;;;1.40;1.40;;;;;;;;;;6162175;28;20304;-57
2024/01/25 17:14:47;;;;;;;1.43;1.40;;;;;;;;;;6161783;28;20290;-55
2024/01/25 17:17:53;;;;;;;1.33;1.33;;;;;;;;;;6160212;28;20288;-57
2024/01/25 17:20:57;;;;;;;1.50;1.50;;;;;;;;;;6160503;29;20293;-57
2024/01/25 17:24:01;;;;;;;1.47;1.37;;;;;;;;;;6160984;28;20301;-57
2024/01/25 17:27:05;;;;;;;1.40;1.40;;;;;;;;;;6181541;28;20308;-56
2024/01/25 17:30:10;;;;;;;1.20;1.20;;;;;;;;;;6184971;28;20305;-57
2024/01/25 17:33:15;;;;;;;1.53;1.43;;;;;;;;;;6185055;28;20289;-56
2024/01/25 17:36:20;;;;;;;1.27;1.27;;;;;;;;;;6185742;28;20301;-56
2024/01/25 17:39:24;;;;;;;1.10;1.10;;;;;;;;;;6184594;28;20301;-59
2024/01/25 17:42:28;;;;;;;1.40;1.23;;;;;;;;;;6185280;28;20293;-57
2024/01/25 17:45:32;;;;;;;1.63;1.20;;;;;;;;;;6184535;28;20312;-58
2024/01/25 17:48:38;;;;;;;1.80;1.20;;;;;;;;;;6184754;28;20321;-57
2024/01/25 17:51:42;;;;;;;1.30;1.30;;;;;;;;;;6184907;28;20498;-58
2024/01/25 17:54:46;;;;;;;1.27;1.27;;;;;;;;;;6184427;28;20307;-56
2024/01/25 17:57:50;;;;;;;1.53;1.43;;;;;;;;;;6184346;28;20297;-57
2024/01/25 18:00:55;;;;;;;1.47;1.30;;;;;;;;;;6184850;28;20325;-57
2024/01/25 18:04:00;;;;;;;1.67;1.50;;;;;;;;;;6181188;28;20289;-57
2024/01/25 18:07:05;;;;;;;1.73;1.27;;;;;;;;;;6184658;28;20297;-56
2024/01/25 18:10:11;;;;;;;1.30;1.30;;;;;;;;;;6183614;28;20422;-56
2024/01/25 18:13:15;;;;;;;1.53;1.43;;;;;;;;;;6183872;28;20288;-59
2024/01/25 18:16:19;;;;;;;1.40;1.40;;;;;;;;;;6184536;28;20305;-57
2024/01/25 18:19:26;;;;;;;1.47;1.37;;;;;;;;;;6183896;28;20305;-55
2024/01/25 18:22:30;;;;;;;1.70;1.40;;;;;;;;;;6174064;28;20304;-54
2024/01/25 18:25:34;;;;;;;1.60;1.50;;;;;;;;;;6167193;28;20300;-58
2024/01/25 18:28:38;;;;;;;1.30;1.30;;;;;;;;;;6160254;28;20306;-58